METAR Data
IDs: Format: Raw Decoded Include TAF

Data at: 0834 UTC 01 Aug 2021

LOWI 010820Z VRB04KT 9999 SHRA FEW012 SCT025 BKN040 FEW050TCU 15/13 Q1010 TEMPO -SHRA BKN050 FEW050CB